sensor_id;sensor_type;location;lat;lon;timestamp;P1;durP1;ratioP1;P2;durP2;ratioP2
18804;SDS011;9530;48.930;9.526;2022-09-09T00:00:17;2.13;;;1.10;;
18804;SDS011;9530;48.930;9.526;2022-09-09T00:02:48;5.27;;;1.10;;
18804;SDS011;9530;48.930;9.526;2022-09-09T00:05:23;4.40;;;1.10;;
18804;SDS011;9530;48.930;9.526;2022-09-09T00:07:57;5.60;;;1.13;;
18804;SDS011;9530;48.930;9.526;2022-09-09T00:10:29;3.63;;;1.30;;
18804;SDS011;9530;48.930;9.526;2022-09-09T00:13:00;4.57;;;1.20;;
18804;SDS011;9530;48.930;9.526;2022-09-09T00:15:33;3.87;;;1.03;;
18804;SDS011;9530;48.930;9.526;2022-09-09T00:18:07;4.27;;;1.40;;
18804;SDS011;9530;48.930;9.526;2022-09-09T00:20:41;1.60;;;0.90;;
18804;SDS011;9530;48.930;9.526;2022-09-09T00:23:16;2.57;;;0.90;;
18804;SDS011;9530;48.930;9.526;2022-09-09T00:25:51;2.13;;;1.10;;
18804;SDS011;9530;48.930;9.526;2022-09-09T00:28:24;2.13;;;1.20;;
18804;SDS011;9530;48.930;9.526;2022-09-09T00:30:57;3.20;;;1.10;;
18804;SDS011;9530;48.930;9.526;2022-09-09T00:33:27;3.37;;;1.20;;
18804;SDS011;9530;48.930;9.526;2022-09-09T00:35:57;3.73;;;1.23;;
18804;SDS011;9530;48.930;9.526;2022-09-09T00:38:28;3.33;;;1.20;;
18804;SDS011;9530;48.930;9.526;2022-09-09T00:41:01;3.53;;;1.40;;
18804;SDS011;9530;48.930;9.526;2022-09-09T00:43:35;2.37;;;1.00;;
18804;SDS011;9530;48.930;9.526;2022-09-09T00:46:13;2.47;;;1.00;;
18804;SDS011;9530;48.930;9.526;2022-09-09T00:48:53;3.57;;;1.27;;
18804;SDS011;9530;48.930;9.526;2022-09-09T00:51:27;3.77;;;1.07;;
18804;SDS011;9530;48.930;9.526;2022-09-09T00:54:08;1.90;;;1.10;;
18804;SDS011;9530;48.930;9.526;2022-09-09T00:56:45;3.23;;;1.10;;
18804;SDS011;9530;48.930;9.526;2022-09-09T00:59:19;3.97;;;1.40;;
18804;SDS011;9530;48.930;9.526;2022-09-09T01:01:54;4.63;;;1.40;;
18804;SDS011;9530;48.930;9.526;2022-09-09T01:04:23;3.70;;;1.30;;
18804;SDS011;9530;48.930;9.526;2022-09-09T01:07:00;3.40;;;1.20;;
18804;SDS011;9530;48.930;9.526;2022-09-09T01:09:37;3.10;;;1.10;;
18804;SDS011;9530;48.930;9.526;2022-09-09T01:12:09;3.30;;;1.30;;
18804;SDS011;9530;48.930;9.526;2022-09-09T01:14:41;2.97;;;1.27;;
18804;SDS011;9530;48.930;9.526;2022-09-09T01:17:12;2.97;;;1.20;;
18804;SDS011;9530;48.930;9.526;2022-09-09T01:19:47;3.20;;;1.20;;
18804;SDS011;9530;48.930;9.526;2022-09-09T01:22:26;3.03;;;1.07;;
18804;SDS011;9530;48.930;9.526;2022-09-09T01:25:13;2.40;;;1.07;;
18804;SDS011;9530;48.930;9.526;2022-09-09T01:27:49;3.70;;;1.13;;
18804;SDS011;9530;48.930;9.526;2022-09-09T01:30:18;3.57;;;1.27;;
18804;SDS011;9530;48.930;9.526;2022-09-09T01:32:47;2.17;;;1.07;;
18804;SDS011;9530;48.930;9.526;2022-09-09T01:35:18;3.90;;;1.10;;
18804;SDS011;9530;48.930;9.526;2022-09-09T01:37:55;3.63;;;1.20;;
18804;SDS011;9530;48.930;9.526;2022-09-09T01:40:22;3.53;;;1.13;;
18804;SDS011;9530;48.930;9.526;2022-09-09T01:42:51;2.67;;;1.10;;
18804;SDS011;9530;48.930;9.526;2022-09-09T01:45:18;6.30;;;1.10;;
18804;SDS011;9530;48.930;9.526;2022-09-09T01:47:46;3.33;;;1.10;;
18804;SDS011;9530;48.930;9.526;2022-09-09T01:50:14;2.33;;;0.90;;
18804;SDS011;9530;48.930;9.526;2022-09-09T01:52:42;2.87;;;1.00;;
18804;SDS011;9530;48.930;9.526;2022-09-09T01:55:11;4.13;;;1.17;;
18804;SDS011;9530;48.930;9.526;2022-09-09T01:57:39;3.27;;;1.20;;
18804;SDS011;9530;48.930;9.526;2022-09-09T02:00:12;3.50;;;1.30;;
18804;SDS011;9530;48.930;9.526;2022-09-09T02:02:43;2.23;;;1.10;;
18804;SDS011;9530;48.930;9.526;2022-09-09T02:05:22;2.17;;;1.10;;
18804;SDS011;9530;48.930;9.526;2022-09-09T02:08:03;4.67;;;1.30;;
18804;SDS011;9530;48.930;9.526;2022-09-09T02:10:35;2.67;;;1.20;;
18804;SDS011;9530;48.930;9.526;2022-09-09T02:13:09;2.20;;;1.03;;
18804;SDS011;9530;48.930;9.526;2022-09-09T02:15:40;2.97;;;1.20;;
18804;SDS011;9530;48.930;9.526;2022-09-09T02:18:13;2.80;;;1.00;;
18804;SDS011;9530;48.930;9.526;2022-09-09T02:20:44;1.90;;;0.90;;
18804;SDS011;9530;48.930;9.526;2022-09-09T02:23:12;2.63;;;1.00;;
18804;SDS011;9530;48.930;9.526;2022-09-09T02:25:39;3.33;;;1.20;;
18804;SDS011;9530;48.930;9.526;2022-09-09T02:28:08;2.93;;;1.10;;
18804;SDS011;9530;48.930;9.526;2022-09-09T02:30:37;2.03;;;1.10;;
18804;SDS011;9530;48.930;9.526;2022-09-09T02:33:10;4.00;;;0.97;;
18804;SDS011;9530;48.930;9.526;2022-09-09T02:35:38;2.60;;;1.00;;
18804;SDS011;9530;48.930;9.526;2022-09-09T02:38:10;3.87;;;1.10;;
18804;SDS011;9530;48.930;9.526;2022-09-09T02:40:39;1.80;;;1.10;;
18804;SDS011;9530;48.930;9.526;2022-09-09T02:43:06;5.10;;;1.17;;
18804;SDS011;9530;48.930;9.526;2022-09-09T02:45:34;1.50;;;1.00;;
18804;SDS011;9530;48.930;9.526;2022-09-09T02:48:11;2.40;;;0.97;;
18804;SDS011;9530;48.930;9.526;2022-09-09T02:50:45;4.67;;;1.10;;
18804;SDS011;9530;48.930;9.526;2022-09-09T02:53:22;2.13;;;0.90;;
18804;SDS011;9530;48.930;9.526;2022-09-09T02:55:52;2.17;;;1.07;;
18804;SDS011;9530;48.930;9.526;2022-09-09T02:58:24;3.17;;;1.07;;
18804;SDS011;9530;48.930;9.526;2022-09-09T03:00:51;3.50;;;1.00;;
18804;SDS011;9530;48.930;9.526;2022-09-09T03:03:20;4.80;;;1.00;;
18804;SDS011;9530;48.930;9.526;2022-09-09T03:05:47;2.23;;;1.07;;
18804;SDS011;9530;48.930;9.526;2022-09-09T03:08:14;2.63;;;1.13;;
18804;SDS011;9530;48.930;9.526;2022-09-09T03:10:42;2.03;;;1.27;;
18804;SDS011;9530;48.930;9.526;2022-09-09T03:13:09;3.00;;;1.20;;
18804;SDS011;9530;48.930;9.526;2022-09-09T03:15:37;5.40;;;1.40;;
18804;SDS011;9530;48.930;9.526;2022-09-09T03:18:03;3.03;;;1.47;;
18804;SDS011;9530;48.930;9.526;2022-09-09T03:20:31;3.13;;;1.50;;
18804;SDS011;9530;48.930;9.526;2022-09-09T03:22:59;4.00;;;1.73;;
18804;SDS011;9530;48.930;9.526;2022-09-09T03:25:27;4.90;;;1.90;;
18804;SDS011;9530;48.930;9.526;2022-09-09T03:27:54;2.70;;;1.70;;
18804;SDS011;9530;48.930;9.526;2022-09-09T03:30:21;2.10;;;1.50;;
18804;SDS011;9530;48.930;9.526;2022-09-09T03:32:49;4.30;;;1.80;;
18804;SDS011;9530;48.930;9.526;2022-09-09T03:35:16;3.43;;;1.50;;
18804;SDS011;9530;48.930;9.526;2022-09-09T03:37:44;2.83;;;1.20;;
18804;SDS011;9530;48.930;9.526;2022-09-09T03:40:11;2.57;;;1.30;;
18804;SDS011;9530;48.930;9.526;2022-09-09T03:42:38;2.60;;;1.23;;
18804;SDS011;9530;48.930;9.526;2022-09-09T03:45:06;4.30;;;1.00;;
18804;SDS011;9530;48.930;9.526;2022-09-09T03:47:35;2.63;;;1.43;;
18804;SDS011;9530;48.930;9.526;2022-09-09T03:50:03;4.77;;;2.20;;
18804;SDS011;9530;48.930;9.526;2022-09-09T03:52:34;2.77;;;1.97;;
18804;SDS011;9530;48.930;9.526;2022-09-09T03:55:02;3.13;;;1.30;;
18804;SDS011;9530;48.930;9.526;2022-09-09T03:57:30;3.00;;;1.40;;
18804;SDS011;9530;48.930;9.526;2022-09-09T03:59:59;1.83;;;1.30;;
18804;SDS011;9530;48.930;9.526;2022-09-09T04:02:27;1.47;;;1.03;;
18804;SDS011;9530;48.930;9.526;2022-09-09T04:04:53;3.17;;;1.20;;
18804;SDS011;9530;48.930;9.526;2022-09-09T04:07:21;1.43;;;0.80;;
18804;SDS011;9530;48.930;9.526;2022-09-09T04:09:48;5.93;;;1.43;;
18804;SDS011;9530;48.930;9.526;2022-09-09T04:12:15;5.67;;;1.47;;
18804;SDS011;9530;48.930;9.526;2022-09-09T04:14:42;3.73;;;1.20;;
18804;SDS011;9530;48.930;9.526;2022-09-09T04:17:09;2.50;;;1.10;;
18804;SDS011;9530;48.930;9.526;2022-09-09T04:19:36;3.23;;;1.30;;
18804;SDS011;9530;48.930;9.526;2022-09-09T04:22:03;2.87;;;1.33;;
18804;SDS011;9530;48.930;9.526;2022-09-09T04:24:30;5.83;;;1.27;;
18804;SDS011;9530;48.930;9.526;2022-09-09T04:26:56;6.50;;;1.50;;
18804;SDS011;9530;48.930;9.526;2022-09-09T04:29:24;2.17;;;1.20;;
18804;SDS011;9530;48.930;9.526;2022-09-09T04:31:51;3.43;;;1.27;;
18804;SDS011;9530;48.930;9.526;2022-09-09T04:34:18;2.27;;;1.10;;
18804;SDS011;9530;48.930;9.526;2022-09-09T04:36:44;2.97;;;1.13;;
18804;SDS011;9530;48.930;9.526;2022-09-09T04:39:11;3.93;;;1.30;;
18804;SDS011;9530;48.930;9.526;2022-09-09T04:41:38;2.47;;;1.10;;
18804;SDS011;9530;48.930;9.526;2022-09-09T04:44:04;2.23;;;1.03;;
18804;SDS011;9530;48.930;9.526;2022-09-09T04:46:32;1.63;;;1.10;;
18804;SDS011;9530;48.930;9.526;2022-09-09T04:48:59;5.23;;;0.90;;
18804;SDS011;9530;48.930;9.526;2022-09-09T04:51:26;3.23;;;1.07;;
18804;SDS011;9530;48.930;9.526;2022-09-09T04:53:53;1.43;;;0.80;;
18804;SDS011;9530;48.930;9.526;2022-09-09T04:56:19;2.97;;;1.10;;
18804;SDS011;9530;48.930;9.526;2022-09-09T04:58:46;6.03;;;1.30;;
18804;SDS011;9530;48.930;9.526;2022-09-09T05:01:14;4.83;;;1.30;;
18804;SDS011;9530;48.930;9.526;2022-09-09T05:03:43;2.73;;;1.30;;
18804;SDS011;9530;48.930;9.526;2022-09-09T05:06:11;6.50;;;1.40;;
18804;SDS011;9530;48.930;9.526;2022-09-09T05:08:40;4.03;;;1.13;;
18804;SDS011;9530;48.930;9.526;2022-09-09T05:11:14;5.70;;;1.30;;
18804;SDS011;9530;48.930;9.526;2022-09-09T05:13:42;2.50;;;1.10;;
18804;SDS011;9530;48.930;9.526;2022-09-09T05:16:09;1.97;;;1.10;;
18804;SDS011;9530;48.930;9.526;2022-09-09T05:18:36;2.97;;;1.10;;
18804;SDS011;9530;48.930;9.526;2022-09-09T05:21:05;2.37;;;1.10;;
18804;SDS011;9530;48.930;9.526;2022-09-09T05:23:32;4.10;;;1.30;;
18804;SDS011;9530;48.930;9.526;2022-09-09T05:25:59;3.20;;;1.63;;
18804;SDS011;9530;48.930;9.526;2022-09-09T05:28:26;2.77;;;1.27;;
18804;SDS011;9530;48.930;9.526;2022-09-09T05:30:57;2.80;;;1.20;;
18804;SDS011;9530;48.930;9.526;2022-09-09T05:33:25;2.40;;;1.30;;
18804;SDS011;9530;48.930;9.526;2022-09-09T05:35:55;2.63;;;1.40;;
18804;SDS011;9530;48.930;9.526;2022-09-09T05:38:28;2.63;;;1.40;;
18804;SDS011;9530;48.930;9.526;2022-09-09T05:40:55;4.20;;;1.20;;
18804;SDS011;9530;48.930;9.526;2022-09-09T05:43:22;3.33;;;1.30;;
18804;SDS011;9530;48.930;9.526;2022-09-09T05:45:58;3.77;;;1.10;;
18804;SDS011;9530;48.930;9.526;2022-09-09T05:48:27;2.43;;;1.03;;
18804;SDS011;9530;48.930;9.526;2022-09-09T05:50:55;1.77;;;1.20;;
18804;SDS011;9530;48.930;9.526;2022-09-09T05:53:22;2.73;;;1.10;;
18804;SDS011;9530;48.930;9.526;2022-09-09T05:55:50;3.00;;;1.20;;
18804;SDS011;9530;48.930;9.526;2022-09-09T05:58:23;2.93;;;1.20;;
18804;SDS011;9530;48.930;9.526;2022-09-09T06:00:50;1.97;;;0.93;;
18804;SDS011;9530;48.930;9.526;2022-09-09T06:03:17;2.83;;;1.10;;
18804;SDS011;9530;48.930;9.526;2022-09-09T06:05:44;3.07;;;1.20;;
18804;SDS011;9530;48.930;9.526;2022-09-09T06:08:10;1.67;;;0.97;;
18804;SDS011;9530;48.930;9.526;2022-09-09T06:10:37;1.70;;;1.00;;
18804;SDS011;9530;48.930;9.526;2022-09-09T06:13:05;5.17;;;1.27;;
18804;SDS011;9530;48.930;9.526;2022-09-09T06:15:31;1.93;;;0.90;;
18804;SDS011;9530;48.930;9.526;2022-09-09T06:17:59;4.33;;;1.30;;
18804;SDS011;9530;48.930;9.526;2022-09-09T06:20:25;4.10;;;1.20;;
18804;SDS011;9530;48.930;9.526;2022-09-09T06:22:55;2.53;;;1.13;;
18804;SDS011;9530;48.930;9.526;2022-09-09T06:25:21;1.37;;;1.10;;
18804;SDS011;9530;48.930;9.526;2022-09-09T06:27:49;3.63;;;1.30;;
18804;SDS011;9530;48.930;9.526;2022-09-09T06:30:17;4.57;;;1.50;;
18804;SDS011;9530;48.930;9.526;2022-09-09T06:32:44;3.10;;;1.37;;
18804;SDS011;9530;48.930;9.526;2022-09-09T06:35:11;5.07;;;1.20;;
18804;SDS011;9530;48.930;9.526;2022-09-09T06:37:38;2.37;;;1.30;;
18804;SDS011;9530;48.930;9.526;2022-09-09T06:40:05;2.20;;;1.30;;
18804;SDS011;9530;48.930;9.526;2022-09-09T06:42:33;1.83;;;1.10;;
18804;SDS011;9530;48.930;9.526;2022-09-09T06:44:59;2.90;;;0.93;;
18804;SDS011;9530;48.930;9.526;2022-09-09T06:47:28;2.13;;;0.97;;
18804;SDS011;9530;48.930;9.526;2022-09-09T06:49:55;2.73;;;1.10;;
18804;SDS011;9530;48.930;9.526;2022-09-09T06:52:23;2.63;;;1.10;;
18804;SDS011;9530;48.930;9.526;2022-09-09T06:54:50;3.93;;;1.30;;
18804;SDS011;9530;48.930;9.526;2022-09-09T06:57:18;3.40;;;1.30;;
18804;SDS011;9530;48.930;9.526;2022-09-09T06:59:44;3.33;;;1.10;;
18804;SDS011;9530;48.930;9.526;2022-09-09T07:02:11;2.33;;;1.10;;
18804;SDS011;9530;48.930;9.526;2022-09-09T07:04:39;3.07;;;1.23;;
18804;SDS011;9530;48.930;9.526;2022-09-09T07:07:06;3.53;;;1.07;;
18804;SDS011;9530;48.930;9.526;2022-09-09T07:09:34;2.27;;;1.13;;
18804;SDS011;9530;48.930;9.526;2022-09-09T07:12:01;2.73;;;1.10;;
18804;SDS011;9530;48.930;9.526;2022-09-09T07:14:30;2.33;;;0.87;;
18804;SDS011;9530;48.930;9.526;2022-09-09T07:16:57;3.97;;;1.47;;
18804;SDS011;9530;48.930;9.526;2022-09-09T07:19:25;4.90;;;1.30;;
18804;SDS011;9530;48.930;9.526;2022-09-09T07:21:53;3.60;;;1.07;;
18804;SDS011;9530;48.930;9.526;2022-09-09T07:24:19;5.53;;;1.33;;
18804;SDS011;9530;48.930;9.526;2022-09-09T07:26:46;3.63;;;1.40;;
18804;SDS011;9530;48.930;9.526;2022-09-09T07:29:13;5.60;;;1.30;;
18804;SDS011;9530;48.930;9.526;2022-09-09T07:31:40;2.53;;;1.00;;
18804;SDS011;9530;48.930;9.526;2022-09-09T07:34:07;4.30;;;1.00;;
18804;SDS011;9530;48.930;9.526;2022-09-09T07:36:35;2.63;;;1.10;;
18804;SDS011;9530;48.930;9.526;2022-09-09T07:39:06;2.10;;;1.10;;
18804;SDS011;9530;48.930;9.526;2022-09-09T07:41:36;2.93;;;1.00;;
18804;SDS011;9530;48.930;9.526;2022-09-09T07:44:05;2.77;;;1.20;;
18804;SDS011;9530;48.930;9.526;2022-09-09T07:46:33;3.10;;;1.10;;
18804;SDS011;9530;48.930;9.526;2022-09-09T07:49:01;4.23;;;1.23;;
18804;SDS011;9530;48.930;9.526;2022-09-09T07:51:28;1.40;;;1.07;;
18804;SDS011;9530;48.930;9.526;2022-09-09T07:53:57;2.43;;;1.10;;
18804;SDS011;9530;48.930;9.526;2022-09-09T07:56:27;2.63;;;1.10;;
18804;SDS011;9530;48.930;9.526;2022-09-09T07:58:55;4.37;;;1.37;;
18804;SDS011;9530;48.930;9.526;2022-09-09T08:01:23;3.53;;;1.23;;
18804;SDS011;9530;48.930;9.526;2022-09-09T08:03:55;4.03;;;1.30;;
18804;SDS011;9530;48.930;9.526;2022-09-09T08:06:24;2.43;;;1.10;;
18804;SDS011;9530;48.930;9.526;2022-09-09T08:08:52;3.60;;;1.20;;
18804;SDS011;9530;48.930;9.526;2022-09-09T08:11:20;2.90;;;0.90;;
18804;SDS011;9530;48.930;9.526;2022-09-09T08:13:49;1.93;;;1.10;;
18804;SDS011;9530;48.930;9.526;2022-09-09T08:16:19;3.97;;;0.97;;
18804;SDS011;9530;48.930;9.526;2022-09-09T08:18:47;2.87;;;1.17;;
18804;SDS011;9530;48.930;9.526;2022-09-09T08:21:15;2.70;;;1.07;;
18804;SDS011;9530;48.930;9.526;2022-09-09T08:23:43;3.47;;;1.10;;
18804;SDS011;9530;48.930;9.526;2022-09-09T08:26:12;4.53;;;1.10;;
18804;SDS011;9530;48.930;9.526;2022-09-09T08:28:41;2.20;;;1.10;;
18804;SDS011;9530;48.930;9.526;2022-09-09T08:31:11;6.03;;;1.50;;
18804;SDS011;9530;48.930;9.526;2022-09-09T08:33:39;2.53;;;1.17;;
18804;SDS011;9530;48.930;9.526;2022-09-09T08:36:08;4.60;;;1.27;;
18804;SDS011;9530;48.930;9.526;2022-09-09T08:38:36;2.07;;;1.00;;
18804;SDS011;9530;48.930;9.526;2022-09-09T08:43:58;1.60;;;1.00;;
18804;SDS011;9530;48.930;9.526;2022-09-09T08:46:34;4.13;;;1.20;;
18804;SDS011;9530;48.930;9.526;2022-09-09T08:49:13;3.10;;;1.10;;
18804;SDS011;9530;48.930;9.526;2022-09-09T08:52:08;3.67;;;1.40;;
18804;SDS011;9530;48.930;9.526;2022-09-09T08:54:43;3.57;;;1.27;;
18804;SDS011;9530;48.930;9.526;2022-09-09T08:57:13;3.37;;;1.30;;
18804;SDS011;9530;48.930;9.526;2022-09-09T08:59:45;6.17;;;1.00;;
18804;SDS011;9530;48.930;9.526;2022-09-09T09:02:15;3.23;;;1.20;;
18804;SDS011;9530;48.930;9.526;2022-09-09T09:04:58;4.77;;;1.10;;
18804;SDS011;9530;48.930;9.526;2022-09-09T09:07:38;4.50;;;1.10;;
18804;SDS011;9530;48.930;9.526;2022-09-09T09:10:17;2.40;;;1.10;;
18804;SDS011;9530;48.930;9.526;2022-09-09T09:12:53;7.50;;;1.10;;
18804;SDS011;9530;48.930;9.526;2022-09-09T09:15:22;3.10;;;1.10;;
18804;SDS011;9530;48.930;9.526;2022-09-09T09:17:51;3.03;;;1.10;;
18804;SDS011;9530;48.930;9.526;2022-09-09T09:20:21;3.80;;;1.40;;
18804;SDS011;9530;48.930;9.526;2022-09-09T09:22:55;5.73;;;1.60;;
18804;SDS011;9530;48.930;9.526;2022-09-09T09:25:30;4.50;;;1.33;;
18804;SDS011;9530;48.930;9.526;2022-09-09T09:28:02;4.63;;;1.30;;
18804;SDS011;9530;48.930;9.526;2022-09-09T09:30:37;2.63;;;1.10;;
18804;SDS011;9530;48.930;9.526;2022-09-09T09:33:11;3.43;;;1.10;;
18804;SDS011;9530;48.930;9.526;2022-09-09T09:35:44;4.07;;;1.40;;
18804;SDS011;9530;48.930;9.526;2022-09-09T09:38:13;4.30;;;1.23;;
18804;SDS011;9530;48.930;9.526;2022-09-09T09:40:50;3.30;;;1.20;;
18804;SDS011;9530;48.930;9.526;2022-09-09T09:43:20;3.40;;;1.30;;
18804;SDS011;9530;48.930;9.526;2022-09-09T09:45:50;3.50;;;1.23;;
18804;SDS011;9530;48.930;9.526;2022-09-09T09:48:18;3.27;;;1.13;;
18804;SDS011;9530;48.930;9.526;2022-09-09T09:50:49;4.30;;;1.20;;
18804;SDS011;9530;48.930;9.526;2022-09-09T09:53:19;2.83;;;1.13;;
18804;SDS011;9530;48.930;9.526;2022-09-09T09:55:49;2.47;;;1.00;;
18804;SDS011;9530;48.930;9.526;2022-09-09T09:58:20;5.33;;;1.50;;
18804;SDS011;9530;48.930;9.526;2022-09-09T10:00:47;3.77;;;1.27;;
18804;SDS011;9530;48.930;9.526;2022-09-09T10:03:21;2.10;;;1.10;;
18804;SDS011;9530;48.930;9.526;2022-09-09T10:05:49;2.80;;;1.20;;
18804;SDS011;9530;48.930;9.526;2022-09-09T10:08:17;4.43;;;1.33;;
18804;SDS011;9530;48.930;9.526;2022-09-09T10:10:50;4.67;;;1.43;;
18804;SDS011;9530;48.930;9.526;2022-09-09T10:13:25;4.53;;;1.20;;
18804;SDS011;9530;48.930;9.526;2022-09-09T10:16:00;5.40;;;1.30;;
18804;SDS011;9530;48.930;9.526;2022-09-09T10:18:39;3.17;;;1.10;;
18804;SDS011;9530;48.930;9.526;2022-09-09T10:27:42;4.07;;;1.10;;
18804;SDS011;9530;48.930;9.526;2022-09-09T10:30:16;2.43;;;1.00;;
18804;SDS011;9530;48.930;9.526;2022-09-09T10:32:45;2.53;;;0.83;;
18804;SDS011;9530;48.930;9.526;2022-09-09T10:35:24;1.50;;;0.90;;
18804;SDS011;9530;48.930;9.526;2022-09-09T10:38:08;2.50;;;0.73;;
18804;SDS011;9530;48.930;9.526;2022-09-09T10:40:43;1.47;;;0.77;;
18804;SDS011;9530;48.930;9.526;2022-09-09T10:43:19;2.33;;;0.83;;
18804;SDS011;9530;48.930;9.526;2022-09-09T10:45:56;2.43;;;0.90;;
18804;SDS011;9530;48.930;9.526;2022-09-09T10:48:31;2.57;;;0.93;;
18804;SDS011;9530;48.930;9.526;2022-09-09T10:51:15;2.00;;;0.80;;
18804;SDS011;9530;48.930;9.526;2022-09-09T10:54:02;2.80;;;1.00;;
18804;SDS011;9530;48.930;9.526;2022-09-09T10:56:40;2.30;;;0.90;;
18804;SDS011;9530;48.930;9.526;2022-09-09T10:59:10;2.57;;;0.93;;
18804;SDS011;9530;48.930;9.526;2022-09-09T11:01:41;1.23;;;0.70;;
18804;SDS011;9530;48.930;9.526;2022-09-09T11:04:13;3.23;;;0.80;;
18804;SDS011;9530;48.930;9.526;2022-09-09T11:06:46;3.50;;;0.77;;
18804;SDS011;9530;48.930;9.526;2022-09-09T11:09:18;3.57;;;1.10;;
18804;SDS011;9530;48.930;9.526;2022-09-09T11:11:49;2.23;;;1.00;;
18804;SDS011;9530;48.930;9.526;2022-09-09T11:14:19;2.23;;;0.93;;
18804;SDS011;9530;48.930;9.526;2022-09-09T11:16:52;2.00;;;1.03;;
18804;SDS011;9530;48.930;9.526;2022-09-09T11:19:24;4.27;;;1.03;;
18804;SDS011;9530;48.930;9.526;2022-09-09T11:21:57;3.23;;;1.03;;
18804;SDS011;9530;48.930;9.526;2022-09-09T11:24:29;3.60;;;1.20;;
18804;SDS011;9530;48.930;9.526;2022-09-09T11:27:01;3.40;;;1.10;;
18804;SDS011;9530;48.930;9.526;2022-09-09T11:29:45;3.83;;;1.10;;
18804;SDS011;9530;48.930;9.526;2022-09-09T11:32:48;1.53;;;0.90;;
18804;SDS011;9530;48.930;9.526;2022-09-09T11:35:38;3.27;;;1.13;;
18804;SDS011;9530;48.930;9.526;2022-09-09T11:38:18;2.43;;;1.03;;
18804;SDS011;9530;48.930;9.526;2022-09-09T11:40:47;2.43;;;1.10;;
18804;SDS011;9530;48.930;9.526;2022-09-09T11:43:23;3.67;;;1.50;;
18804;SDS011;9530;48.930;9.526;2022-09-09T11:45:53;2.50;;;1.30;;
18804;SDS011;9530;48.930;9.526;2022-09-09T11:48:25;6.00;;;1.47;;
18804;SDS011;9530;48.930;9.526;2022-09-09T11:50:58;4.30;;;1.00;;
18804;SDS011;9530;48.930;9.526;2022-09-09T11:53:31;2.70;;;0.90;;
18804;SDS011;9530;48.930;9.526;2022-09-09T11:56:05;8.20;;;1.27;;
18804;SDS011;9530;48.930;9.526;2022-09-09T11:58:36;5.77;;;1.50;;
18804;SDS011;9530;48.930;9.526;2022-09-09T12:01:13;4.57;;;1.60;;
18804;SDS011;9530;48.930;9.526;2022-09-09T12:03:41;7.43;;;1.60;;
18804;SDS011;9530;48.930;9.526;2022-09-09T12:06:11;11.37;;;1.80;;
18804;SDS011;9530;48.930;9.526;2022-09-09T12:08:45;12.60;;;2.30;;
18804;SDS011;9530;48.930;9.526;2022-09-09T12:11:23;10.90;;;1.90;;
18804;SDS011;9530;48.930;9.526;2022-09-09T12:13:52;6.93;;;1.97;;
18804;SDS011;9530;48.930;9.526;2022-09-09T12:16:30;9.43;;;1.73;;
18804;SDS011;9530;48.930;9.526;2022-09-09T12:19:05;7.37;;;1.70;;
18804;SDS011;9530;48.930;9.526;2022-09-09T12:21:42;5.30;;;1.63;;
18804;SDS011;9530;48.930;9.526;2022-09-09T12:24:16;6.33;;;1.37;;
18804;SDS011;9530;48.930;9.526;2022-09-09T12:26:52;4.73;;;1.60;;
18804;SDS011;9530;48.930;9.526;2022-09-09T12:29:25;6.07;;;1.60;;
18804;SDS011;9530;48.930;9.526;2022-09-09T12:31:59;4.07;;;1.20;;
18804;SDS011;9530;48.930;9.526;2022-09-09T12:34:33;5.70;;;1.33;;
18804;SDS011;9530;48.930;9.526;2022-09-09T12:37:04;3.57;;;1.20;;
18804;SDS011;9530;48.930;9.526;2022-09-09T12:39:40;4.27;;;1.40;;
18804;SDS011;9530;48.930;9.526;2022-09-09T12:42:16;3.27;;;1.23;;
18804;SDS011;9530;48.930;9.526;2022-09-09T12:44:50;3.53;;;1.30;;
18804;SDS011;9530;48.930;9.526;2022-09-09T12:47:17;5.83;;;1.50;;
18804;SDS011;9530;48.930;9.526;2022-09-09T12:49:46;4.20;;;1.20;;
18804;SDS011;9530;48.930;9.526;2022-09-09T12:52:16;3.73;;;1.23;;
18804;SDS011;9530;48.930;9.526;2022-09-09T12:54:48;5.17;;;1.30;;
18804;SDS011;9530;48.930;9.526;2022-09-09T12:57:16;3.03;;;1.00;;
18804;SDS011;9530;48.930;9.526;2022-09-09T12:59:44;4.73;;;1.30;;
18804;SDS011;9530;48.930;9.526;2022-09-09T13:02:18;5.83;;;1.30;;
18804;SDS011;9530;48.930;9.526;2022-09-09T13:04:47;2.87;;;0.80;;
18804;SDS011;9530;48.930;9.526;2022-09-09T13:07:15;1.97;;;1.20;;
18804;SDS011;9530;48.930;9.526;2022-09-09T13:09:43;1.17;;;0.73;;
18804;SDS011;9530;48.930;9.526;2022-09-09T13:12:13;3.63;;;0.90;;
18804;SDS011;9530;48.930;9.526;2022-09-09T13:14:43;1.87;;;0.90;;
18804;SDS011;9530;48.930;9.526;2022-09-09T13:17:17;3.63;;;1.20;;
18804;SDS011;9530;48.930;9.526;2022-09-09T13:19:46;2.33;;;0.83;;
18804;SDS011;9530;48.930;9.526;2022-09-09T13:22:20;2.07;;;0.80;;
18804;SDS011;9530;48.930;9.526;2022-09-09T13:24:58;1.47;;;0.70;;
18804;SDS011;9530;48.930;9.526;2022-09-09T13:27:29;2.23;;;0.80;;
18804;SDS011;9530;48.930;9.526;2022-09-09T13:29:59;2.57;;;0.87;;
18804;SDS011;9530;48.930;9.526;2022-09-09T13:32:28;1.33;;;0.83;;
18804;SDS011;9530;48.930;9.526;2022-09-09T13:34:56;5.63;;;2.37;;
18804;SDS011;9530;48.930;9.526;2022-09-09T13:37:26;2.30;;;1.00;;
18804;SDS011;9530;48.930;9.526;2022-09-09T13:39:58;0.80;;;0.60;;
18804;SDS011;9530;48.930;9.526;2022-09-09T13:42:25;3.17;;;0.70;;
18804;SDS011;9530;48.930;9.526;2022-09-09T13:44:55;1.77;;;0.70;;
18804;SDS011;9530;48.930;9.526;2022-09-09T13:47:27;2.33;;;0.70;;
18804;SDS011;9530;48.930;9.526;2022-09-09T13:49:56;3.03;;;0.80;;
18804;SDS011;9530;48.930;9.526;2022-09-09T13:52:23;1.37;;;0.70;;
18804;SDS011;9530;48.930;9.526;2022-09-09T13:54:51;1.93;;;0.80;;
18804;SDS011;9530;48.930;9.526;2022-09-09T13:57:19;1.87;;;0.70;;
18804;SDS011;9530;48.930;9.526;2022-09-09T13:59:48;1.97;;;0.60;;
18804;SDS011;9530;48.930;9.526;2022-09-09T14:02:16;0.97;;;0.60;;
18804;SDS011;9530;48.930;9.526;2022-09-09T14:04:43;2.77;;;0.90;;
18804;SDS011;9530;48.930;9.526;2022-09-09T14:07:11;1.87;;;0.80;;
18804;SDS011;9530;48.930;9.526;2022-09-09T14:09:39;2.33;;;0.80;;
18804;SDS011;9530;48.930;9.526;2022-09-09T14:12:08;3.13;;;0.80;;
18804;SDS011;9530;48.930;9.526;2022-09-09T14:14:35;1.70;;;0.63;;
18804;SDS011;9530;48.930;9.526;2022-09-09T14:17:02;1.17;;;0.70;;
18804;SDS011;9530;48.930;9.526;2022-09-09T14:19:30;1.90;;;0.80;;
18804;SDS011;9530;48.930;9.526;2022-09-09T14:21:57;1.10;;;0.80;;
18804;SDS011;9530;48.930;9.526;2022-09-09T14:24:24;2.20;;;0.90;;
18804;SDS011;9530;48.930;9.526;2022-09-09T14:26:51;1.67;;;1.10;;
18804;SDS011;9530;48.930;9.526;2022-09-09T14:29:17;3.83;;;1.07;;
18804;SDS011;9530;48.930;9.526;2022-09-09T14:31:44;2.70;;;1.03;;
18804;SDS011;9530;48.930;9.526;2022-09-09T14:34:11;3.77;;;1.17;;
18804;SDS011;9530;48.930;9.526;2022-09-09T14:36:40;1.80;;;0.80;;
18804;SDS011;9530;48.930;9.526;2022-09-09T14:39:07;1.30;;;0.70;;
18804;SDS011;9530;48.930;9.526;2022-09-09T14:41:34;4.17;;;0.70;;
18804;SDS011;9530;48.930;9.526;2022-09-09T14:44:00;3.07;;;1.00;;
18804;SDS011;9530;48.930;9.526;2022-09-09T14:46:27;3.17;;;0.80;;
18804;SDS011;9530;48.930;9.526;2022-09-09T14:48:54;3.23;;;1.03;;
18804;SDS011;9530;48.930;9.526;2022-09-09T14:51:22;2.20;;;0.90;;
18804;SDS011;9530;48.930;9.526;2022-09-09T14:53:54;2.77;;;0.70;;
18804;SDS011;9530;48.930;9.526;2022-09-09T14:56:23;2.67;;;0.90;;
18804;SDS011;9530;48.930;9.526;2022-09-09T14:58:52;2.23;;;0.93;;
18804;SDS011;9530;48.930;9.526;2022-09-09T15:01:19;4.23;;;1.00;;
18804;SDS011;9530;48.930;9.526;2022-09-09T15:03:48;1.70;;;0.80;;
18804;SDS011;9530;48.930;9.526;2022-09-09T15:06:17;2.13;;;0.70;;
18804;SDS011;9530;48.930;9.526;2022-09-09T15:08:44;1.70;;;0.80;;
18804;SDS011;9530;48.930;9.526;2022-09-09T15:11:13;1.97;;;0.90;;
18804;SDS011;9530;48.930;9.526;2022-09-09T15:13:41;2.20;;;0.80;;
18804;SDS011;9530;48.930;9.526;2022-09-09T15:16:09;3.37;;;0.90;;
18804;SDS011;9530;48.930;9.526;2022-09-09T15:18:38;1.83;;;0.70;;
18804;SDS011;9530;48.930;9.526;2022-09-09T15:21:07;1.17;;;0.60;;
18804;SDS011;9530;48.930;9.526;2022-09-09T15:23:35;2.73;;;1.00;;
18804;SDS011;9530;48.930;9.526;2022-09-09T15:26:02;1.77;;;0.80;;
18804;SDS011;9530;48.930;9.526;2022-09-09T15:28:32;2.40;;;0.90;;